Flight Track Log - Related Links

Times and Time Zones

All times are in EDT time to prevent confusion due to time zone crossing. See the N3011W flight status page for this flight to view local times or setup timezone preferences in your user account.

Time Position Orientation Groundspeed Altitude Reporting Facility
EDT Latitude Longitude Course Direction KTS MPH feet Rate Location/Type
Sat 05:39:38 PM 36.9117 -86.4364 189° South 124 143 2,600  Level Memphis Center
Sat 05:40:38 PM 36.8908 -86.4400 188° South 101 116 3,400 800 Climbing Memphis Center
Sat 05:41:38 PM 36.8661 -86.4464 192° South 91 105 4,200 700 Climbing Memphis Center
Sat 05:42:38 PM 36.8433 -86.4500 187° South 86 99 4,800 600 Climbing Memphis Center
Sat 05:43:38 PM 36.8206 -86.4617 202° Southwest 86 99 5,400 600 Climbing Memphis Center
Sat 05:44:38 PM 36.8000 -86.4650 187° South 86 99 6,000 350 Climbing Memphis Center
Sat 05:45:00 PM 36.7828 -86.4622 189° South  Level Estimated
Sat 05:45:38 PM 36.7731 -86.4742 195° South 96 110 6,100  Level Memphis Center
Sat 05:46:38 PM 36.7400 -86.4811 190° South 115 132 6,100  Level Memphis Center
Sat 05:47:38 PM 36.7069 -86.4878 189° South 123 142 6,100  Level Memphis Center
Sat 05:48:38 PM 36.6736 -86.4944 189° South 123 142 6,100  Level Memphis Center
Sat 05:49:38 PM 36.6428 -86.5011 190° South 123 142 6,100  Level Memphis Center
Sat 05:50:38 PM 36.6158 -86.5075 191° South 123 142 6,100  Level Memphis Center
Sat 05:51:38 PM 36.5825 -86.5144 189° South 123 142 6,100  Level Memphis Center
Sat 05:52:38 PM 36.5536 -86.5208 190° South 123 142 6,100  Level Memphis Center
Sat 05:53:38 PM 36.5247 -86.5275 191° South 118 136 6,100  Level Memphis Center
Sat 05:54:38 PM 36.4956 -86.5339 190° South 118 136 6,100  Level Memphis Center
Sat 05:55:38 PM 36.4583 -86.5436 192° South 118 136 6,100  Level Memphis Center
Sat 05:56:38 PM 36.4275 -86.5528 193° South 118 136 6,100  Level Memphis Center
Sat 05:58:57 PM 36.3500 -86.5667 188° South 120 138 6,100  Level Nashville TRACON
Sat 05:59:57 PM 36.3167 -86.5667 180° South 116 133 6,100  Level Nashville TRACON
Sat 06:00:58 PM 36.2833 -86.5833 202° Southwest 118 136 6,100  Level Nashville TRACON
Sat 06:01:52 PM 36.2667 -86.5833 180° South 120 138 6,100  Level Nashville TRACON
Sat 06:02:52 PM 36.2333 -86.6000 202° Southwest 118 136 6,100  Level Nashville TRACON
Sat 06:03:47 PM 36.2000 -86.6000 180° South 119 137 6,100  Level Nashville TRACON
Sat 06:04:52 PM 36.1667 -86.6167 202° Southwest 122 140 6,100  Level Nashville TRACON
Sat 06:05:52 PM 36.1333 -86.6167 180° South 119 137 6,100  Level Nashville TRACON
Sat 06:06:53 PM 36.1000 -86.6167 180° South 113 130 6,100  Level Nashville TRACON
Sat 06:07:58 PM 36.0667 -86.6333 202° Southwest 120 138 6,100  Level Nashville TRACON
Sat 06:08:59 PM 36.0333 -86.6333 180° South 122 140 6,100  Level Nashville TRACON
Sat 06:10:04 PM 36.0000 -86.6500 202° Southwest 120 138 6,100  Level Nashville TRACON
Sat 06:11:06 PM 35.9667 -86.6500 180° South 120 138 6,100  Level Nashville TRACON
Sat 06:12:04 PM 35.9333 -86.6667 202° Southwest 118 136 6,100  Level Nashville TRACON
Sat 06:13:05 PM 35.9000 -86.6667 180° South 119 137 6,100  Level Nashville TRACON
Sat 06:14:13 PM 35.8667 -86.6833 202° Southwest 120 138 6,100  Level Nashville TRACON
Sat 06:14:50 PM 35.8331 -86.6878 186° South 118 136 6,100  Level Memphis Center
Sat 06:15:50 PM 35.8022 -86.6969 194° South 118 136 6,100  Level Memphis Center
Sat 06:16:50 PM 35.7731 -86.7008 186° South 124 143 6,100  Level Memphis Center
Sat 06:17:50 PM 35.7422 -86.7097 193° South 124 143 6,100  Level Memphis Center
Sat 06:18:50 PM 35.7089 -86.7164 189° South 124 143 6,100  Level Memphis Center
Sat 06:19:50 PM 35.6819 -86.7228 191° South 124 143 6,100  Level Memphis Center
Sat 06:20:50 PM 35.6486 -86.7267 185° South 124 143 6,100  Level Memphis Center
Sat 06:21:50 PM 35.6197 -86.7356 194° South 124 143 6,100  Level Memphis Center
Sat 06:22:50 PM 35.5847 -86.7447 192° South 124 143 6,100  Level Memphis Center
Sat 06:23:50 PM 35.5533 -86.7486 186° South 124 143 6,100  Level Memphis Center
Sat 06:24:50 PM 35.5203 -86.7603 196° South 124 143 6,100  Level Memphis Center
Sat 06:25:50 PM 35.4894 -86.7667 190° South 124 143 6,100  Level Memphis Center
Sat 06:26:50 PM 35.4519 -86.7736 189° South 124 143 6,100  Level Memphis Center
Sat 06:27:50 PM 35.4189 -86.7800 189° South 124 143 6,100  Level Memphis Center
Sat 06:28:50 PM 35.3897 -86.7889 194° South 124 143 6,100  Level Memphis Center
Sat 06:29:50 PM 35.3586 -86.7953 190° South 118 136 6,100  Level Memphis Center
Sat 06:30:50 PM 35.3275 -86.8017 190° South 118 136 6,100  Level Memphis Center
Sat 06:31:50 PM 35.2964 -86.8083 190° South 118 136 6,100  Level Memphis Center
Sat 06:32:50 PM 35.2656 -86.8172 193° South 118 136 6,100  Level Memphis Center
Sat 06:33:50 PM 35.2364 -86.8208 186° South 118 136 6,100  Level Memphis Center
Sat 06:34:50 PM 35.2053 -86.8297 193° South 118 136 6,100  Level Memphis Center
Sat 06:35:50 PM 35.1764 -86.8386 194° South 118 136 6,100  Level Memphis Center
Sat 06:36:50 PM 35.1453 -86.8425 186° South 118 136 6,100  Level Memphis Center
Sat 06:37:50 PM 35.1142 -86.8489 190° South 123 142 6,100  Level Memphis Center
Sat 06:38:50 PM 35.0831 -86.8553 190° South 123 142 6,100  Level Memphis Center
Sat 06:39:50 PM 35.0497 -86.8617 189° South 123 142 6,100 -150 Level Memphis Center
Sat 06:40:50 PM 35.0233 -86.8831 214° Southwest 123 142 5,800 -400 Descending Memphis Center
Sat 06:41:50 PM 34.9947 -86.9097 217° Southwest 123 142 5,300 -650 Descending Memphis Center
Sat 06:42:50 PM 34.9686 -86.9386 222° Southwest 128 147 4,500 -800 Descending Memphis Center
Sat 06:43:50 PM 34.9356 -86.9525 199° South 134 154 3,700 -700 Descending Memphis Center
Sat 06:44:50 PM 34.8939 -86.9544 182° South 134 154 3,100 -600 Descending Memphis Center

Login

Don't have an account? Register now (free) for customized features, flight alerts, and more!